createdAt,value
2022-08-03T00:02:26.380Z,6.60
2022-08-03T00:05:00.698Z,7.10
2022-08-03T00:07:32.133Z,6.40
2022-08-03T00:10:03.688Z,4.30
2022-08-03T00:12:36.539Z,7.20
2022-08-03T00:15:11.347Z,7.00
2022-08-03T00:17:53.121Z,6.30
2022-08-03T00:23:01.030Z,5.50
2022-08-03T00:25:32.687Z,8.50
2022-08-03T00:28:04.238Z,4.70
2022-08-03T00:30:36.140Z,4.20
2022-08-03T00:33:08.375Z,5.60
2022-08-03T00:35:50.157Z,5.70
2022-08-03T00:38:22.065Z,6.20
2022-08-03T00:40:53.745Z,6.10
2022-08-03T00:43:28.202Z,5.40
2022-08-03T00:45:59.589Z,4.90
2022-08-03T00:48:33.876Z,6.60
2022-08-03T00:51:05.999Z,3.70
2022-08-03T00:53:38.600Z,5.20
2022-08-03T00:56:10.208Z,7.60
2022-08-03T00:58:41.730Z,6.30
2022-08-03T01:01:13.669Z,5.00
2022-08-03T01:03:45.158Z,5.30
2022-08-03T01:06:26.110Z,7.50
2022-08-03T01:09:05.063Z,8.30
2022-08-03T01:12:01.131Z,6.10
2022-08-03T01:14:45.701Z,7.50
2022-08-03T01:17:25.056Z,6.70
2022-08-03T01:20:02.125Z,5.90
2022-08-03T01:23:01.080Z,7.60
2022-08-03T01:25:41.820Z,6.50
2022-08-03T01:28:30.509Z,7.00
2022-08-03T01:31:06.379Z,6.70
2022-08-03T01:33:42.100Z,6.50
2022-08-03T01:36:19.145Z,4.30
2022-08-03T01:38:55.424Z,6.00
2022-08-03T01:41:31.591Z,6.80
2022-08-03T01:44:29.986Z,3.40
2022-08-03T01:46:59.931Z,5.00
2022-08-03T01:49:33.674Z,7.00
2022-08-03T01:52:07.708Z,5.90
2022-08-03T01:54:43.570Z,7.20
2022-08-03T01:57:16.712Z,6.80
2022-08-03T01:59:57.372Z,7.60
2022-08-03T02:02:34.753Z,4.60
2022-08-03T02:05:10.991Z,7.50
2022-08-03T02:07:55.934Z,5.60
2022-08-03T02:10:35.394Z,5.70
2022-08-03T02:13:09.281Z,7.70
2022-08-03T02:15:45.298Z,7.30
2022-08-03T02:18:19.716Z,5.00
2022-08-03T02:20:51.963Z,8.20
2022-08-03T02:23:23.491Z,5.80
2022-08-03T02:25:59.921Z,7.20
2022-08-03T02:28:37.482Z,5.70
2022-08-03T02:31:14.355Z,6.50
2022-08-03T02:33:50.274Z,6.40
2022-08-03T02:36:25.478Z,5.90
2022-08-03T02:39:01.101Z,5.80
2022-08-03T02:41:36.894Z,5.10
2022-08-03T02:44:13.522Z,6.10
2022-08-03T02:46:48.361Z,5.00
2022-08-03T02:49:40.510Z,7.50
2022-08-03T02:52:15.634Z,6.00
2022-08-03T02:54:47.936Z,7.90
2022-08-03T02:57:21.401Z,4.30
2022-08-03T02:59:53.103Z,6.10
2022-08-03T03:02:25.566Z,7.60
2022-08-03T03:05:54.338Z,7.50
2022-08-03T03:07:51.802Z,8.50
2022-08-03T03:10:26.192Z,5.70
2022-08-03T03:12:59.279Z,5.30
2022-08-03T03:15:32.821Z,5.60
2022-08-03T03:18:05.502Z,7.00
2022-08-03T03:20:38.252Z,5.40
2022-08-03T03:23:10.693Z,7.60
2022-08-03T03:25:42.991Z,5.80
2022-08-03T03:28:14.595Z,6.90
2022-08-03T03:30:53.866Z,8.20
2022-08-03T03:33:28.328Z,7.10
2022-08-03T03:36:00.800Z,5.90
2022-08-03T03:38:33.448Z,10.20
2022-08-03T03:41:05.930Z,5.70
2022-08-03T03:43:37.571Z,6.20
2022-08-03T03:46:09.496Z,7.70
2022-08-03T03:48:42.128Z,5.50
2022-08-03T03:51:14.315Z,6.80
2022-08-03T03:53:57.743Z,5.90
2022-08-03T03:56:30.060Z,7.80
2022-08-03T03:59:01.589Z,6.70
2022-08-03T04:01:33.746Z,6.80
2022-08-03T04:04:19.165Z,6.50
2022-08-03T04:07:08.053Z,7.20
2022-08-03T04:10:00.036Z,3.00
2022-08-03T04:12:50.328Z,10.60
2022-08-03T04:15:27.303Z,5.50
2022-08-03T04:18:00.662Z,5.20
2022-08-03T04:20:36.153Z,5.40
2022-08-03T04:23:13.584Z,7.70
2022-08-03T04:25:53.384Z,6.70
2022-08-03T04:28:38.989Z,5.80
2022-08-03T04:31:11.066Z,5.70
2022-08-03T04:33:43.560Z,5.50
2022-08-03T04:36:19.508Z,6.70
2022-08-03T04:39:01.741Z,8.90
2022-08-03T04:42:06.936Z,6.00
2022-08-03T04:44:36.892Z,5.00
2022-08-03T04:47:11.607Z,6.20
2022-08-03T04:49:49.944Z,8.30
2022-08-03T04:52:21.696Z,7.40
2022-08-03T04:54:53.148Z,8.10
2022-08-03T04:57:27.459Z,5.30
2022-08-03T05:00:03.201Z,6.90
2022-08-03T05:02:35.501Z,6.70
2022-08-03T05:05:10.111Z,5.00
2022-08-03T05:07:42.931Z,6.20
2022-08-03T05:10:16.876Z,5.60
2022-08-03T05:12:53.093Z,5.40
2022-08-03T05:15:26.975Z,5.20
2022-08-03T05:17:58.561Z,5.30
2022-08-03T05:20:31.326Z,6.20
2022-08-03T05:23:04.136Z,7.90
2022-08-03T05:28:21.631Z,9.20
2022-08-03T05:31:04.190Z,5.60
2022-08-03T05:33:59.960Z,6.80
2022-08-03T05:36:37.316Z,6.60
2022-08-03T05:39:11.780Z,8.70
2022-08-03T05:41:46.186Z,6.40
2022-08-03T05:44:18.644Z,6.50
2022-08-03T05:46:50.192Z,7.50
2022-08-03T05:49:21.953Z,8.40
2022-08-03T05:52:00.431Z,8.50
2022-08-03T05:54:57.010Z,6.60
2022-08-03T05:57:29.381Z,8.60
2022-08-03T06:00:01.051Z,8.10
2022-08-03T06:02:45.142Z,8.70
2022-08-03T06:05:18.500Z,6.50
2022-08-03T06:07:52.961Z,8.90
2022-08-03T06:10:36.357Z,6.40
2022-08-03T06:13:12.440Z,8.20
2022-08-03T06:15:43.873Z,8.10
2022-08-03T06:18:15.190Z,6.30
2022-08-03T06:20:47.198Z,8.50
2022-08-03T06:23:21.269Z,6.70
2022-08-03T06:25:52.921Z,6.90
2022-08-03T06:28:51.631Z,7.40
2022-08-03T06:31:20.860Z,6.60
2022-08-03T06:34:32.394Z,8.10
2022-08-03T06:37:02.106Z,5.00
2022-08-03T06:39:36.881Z,7.70
2022-08-03T06:42:11.835Z,6.30
2022-08-03T06:44:46.797Z,10.10
2022-08-03T06:47:20.940Z,9.70
2022-08-03T06:50:17.185Z,10.00
2022-08-03T06:52:46.520Z,6.40
2022-08-03T06:55:21.117Z,8.60
2022-08-03T06:57:52.582Z,10.10
2022-08-03T07:00:33.151Z,11.60
2022-08-03T07:03:07.505Z,8.50
2022-08-03T07:05:41.626Z,9.80
2022-08-03T07:08:14.903Z,9.50
2022-08-03T07:10:48.911Z,8.90
2022-08-03T07:13:22.931Z,8.50
2022-08-03T07:15:56.080Z,11.70
2022-08-03T07:18:29.808Z,10.00
2022-08-03T07:21:01.662Z,14.00
2022-08-03T07:23:36.395Z,12.90
2022-08-03T07:26:08.260Z,11.20
2022-08-03T07:28:39.587Z,12.90
2022-08-03T07:31:10.947Z,10.00
2022-08-03T07:33:42.321Z,11.70
2022-08-03T07:36:13.722Z,15.50
2022-08-03T07:38:45.183Z,12.20
2022-08-03T07:41:16.634Z,11.00
2022-08-03T07:43:48.007Z,11.20
2022-08-03T07:46:20.489Z,10.70
2022-08-03T07:48:52.303Z,9.40
2022-08-03T07:51:23.699Z,11.70
2022-08-03T07:53:57.812Z,10.30
2022-08-03T07:56:29.735Z,10.70
2022-08-03T07:59:02.632Z,8.00
2022-08-03T08:01:36.914Z,6.60
2022-08-03T08:04:08.431Z,7.30
2022-08-03T08:06:39.767Z,6.40
2022-08-03T08:09:11.837Z,8.10
2022-08-03T08:11:43.177Z,7.40
2022-08-03T08:14:14.542Z,6.50
2022-08-03T08:16:46.495Z,6.20
2022-08-03T08:19:17.889Z,7.20
2022-08-03T08:21:53.791Z,7.00
2022-08-03T08:24:34.209Z,6.50
2022-08-03T08:27:05.936Z,7.00
2022-08-03T08:29:37.300Z,5.20
2022-08-03T08:32:19.209Z,4.60
2022-08-03T08:34:51.148Z,7.10
2022-08-03T08:37:22.439Z,5.00
2022-08-03T08:39:54.015Z,4.20
2022-08-03T08:42:25.420Z,5.40
2022-08-03T08:44:57.871Z,5.50
2022-08-03T08:47:50.886Z,7.10
2022-08-03T08:50:27.851Z,7.90
2022-08-03T08:53:04.507Z,7.00
2022-08-03T08:55:59.324Z,6.10
2022-08-03T08:58:30.123Z,8.50
2022-08-03T09:01:01.732Z,5.60
2022-08-03T09:03:34.376Z,4.10
2022-08-03T09:06:07.055Z,5.90
2022-08-03T09:08:38.447Z,5.10
2022-08-03T09:11:12.035Z,5.10
2022-08-03T09:13:44.096Z,5.00
2022-08-03T09:16:17.864Z,4.30
2022-08-03T09:18:51.094Z,5.40
2022-08-03T09:21:32.118Z,5.40
2022-08-03T09:24:10.492Z,6.20
2022-08-03T09:26:54.802Z,4.00
2022-08-03T09:29:26.470Z,4.60
2022-08-03T09:32:06.108Z,5.70
2022-08-03T09:34:37.887Z,4.60
2022-08-03T09:37:17.219Z,7.50
2022-08-03T09:39:48.822Z,5.80
2022-08-03T09:42:23.613Z,3.40
2022-08-03T09:44:56.058Z,3.90
2022-08-03T09:47:34.325Z,3.00
2022-08-03T09:50:08.373Z,4.10
2022-08-03T09:52:49.357Z,3.30
2022-08-03T09:56:33.598Z,4.70
2022-08-03T09:58:16.597Z,5.60
2022-08-03T10:00:58.844Z,7.90
2022-08-03T10:03:32.294Z,5.00
2022-08-03T10:06:19.575Z,4.80
2022-08-03T10:09:08.769Z,6.00
2022-08-03T10:11:42.422Z,3.90
2022-08-03T10:14:19.500Z,5.00
2022-08-03T10:17:03.315Z,5.70
2022-08-03T10:19:35.123Z,5.70
2022-08-03T10:22:13.693Z,3.60
2022-08-03T10:25:06.934Z,4.80
2022-08-03T10:27:48.809Z,4.60
2022-08-03T10:30:26.187Z,6.70
2022-08-03T10:33:03.644Z,6.70
2022-08-03T10:35:54.112Z,3.10
2022-08-03T10:38:34.194Z,2.80
2022-08-03T10:41:19.319Z,3.00
2022-08-03T10:43:56.214Z,4.00
2022-08-03T10:46:30.428Z,3.60
2022-08-03T10:49:04.594Z,3.40
2022-08-03T10:51:36.524Z,3.10
2022-08-03T10:54:10.527Z,3.30
2022-08-03T10:57:14.668Z,2.50
2022-08-03T11:00:05.240Z,2.30
2022-08-03T11:03:10.496Z,1.30
2022-08-03T11:05:44.530Z,1.90
2022-08-03T11:08:26.893Z,3.20
2022-08-03T11:11:03.656Z,2.70
2022-08-03T11:13:35.164Z,2.70
2022-08-03T11:16:23.587Z,4.80
2022-08-03T11:19:02.810Z,3.10
2022-08-03T11:21:56.886Z,2.60
2022-08-03T11:25:04.702Z,4.80
2022-08-03T11:27:37.790Z,2.00
2022-08-03T11:30:14.081Z,3.30
2022-08-03T11:33:02.684Z,2.10
2022-08-03T11:35:36.170Z,2.80
2022-08-03T11:38:12.612Z,0.80
2022-08-03T11:40:49.934Z,3.00
2022-08-03T11:43:47.669Z,1.80
2022-08-03T11:46:28.348Z,3.10
2022-08-03T11:49:10.838Z,2.90
2022-08-03T11:51:42.426Z,1.60
2022-08-03T11:54:14.038Z,1.70
2022-08-03T11:56:50.016Z,5.20
2022-08-03T11:59:32.897Z,4.10
2022-08-03T12:02:12.029Z,3.00
2022-08-03T12:04:58.389Z,1.90
2022-08-03T12:08:03.688Z,3.20
2022-08-03T12:10:23.936Z,2.50
2022-08-03T12:13:00.060Z,2.90
2022-08-03T12:15:41.023Z,4.70
2022-08-03T12:18:20.873Z,1.90
2022-08-03T12:20:53.659Z,4.70
2022-08-03T12:23:25.074Z,4.50
2022-08-03T12:26:02.691Z,1.00
2022-08-03T12:28:37.267Z,1.10
2022-08-03T12:31:10.635Z,2.00
2022-08-03T12:34:03.533Z,4.00
2022-08-03T12:36:37.703Z,6.30
2022-08-03T12:39:12.035Z,2.00
2022-08-03T12:41:43.696Z,2.60
2022-08-03T12:44:15.124Z,1.90
2022-08-03T12:46:48.058Z,5.70
2022-08-03T12:49:20.088Z,3.90
2022-08-03T12:52:07.042Z,2.00
2022-08-03T12:54:39.051Z,2.40
2022-08-03T12:57:16.325Z,1.50
2022-08-03T12:59:52.577Z,1.60
2022-08-03T13:02:27.503Z,2.90
2022-08-03T13:05:00.353Z,0.70
2022-08-03T13:07:41.300Z,1.10
2022-08-03T13:10:31.721Z,1.90
2022-08-03T13:13:04.880Z,1.60
2022-08-03T13:15:39.627Z,2.20
2022-08-03T13:18:19.604Z,2.80
2022-08-03T13:20:50.900Z,4.00
2022-08-03T13:23:22.851Z,1.10
2022-08-03T13:25:55.316Z,2.30
2022-08-03T13:28:27.577Z,1.10
2022-08-03T13:30:59.325Z,1.00
2022-08-03T13:33:31.281Z,1.20
2022-08-03T13:36:02.696Z,1.80
2022-08-03T13:38:33.999Z,1.90
2022-08-03T13:41:05.932Z,2.80
2022-08-03T13:43:37.190Z,5.90
2022-08-03T13:46:08.536Z,1.70
2022-08-03T13:48:39.865Z,3.40
2022-08-03T13:51:21.975Z,3.40
2022-08-03T13:53:54.904Z,1.40
2022-08-03T13:56:26.338Z,1.90
2022-08-03T13:58:58.376Z,1.40
2022-08-03T14:01:53.558Z,0.40
2022-08-03T14:04:26.015Z,2.20
2022-08-03T14:07:21.103Z,1.20
2022-08-03T14:10:01.925Z,1.70
2022-08-03T14:12:38.169Z,1.40
2022-08-03T14:15:19.480Z,2.00
2022-08-03T14:20:58.720Z,1.60
2022-08-03T14:23:32.763Z,1.40
2022-08-03T14:26:04.922Z,2.80
2022-08-03T14:28:37.026Z,1.40
2022-08-03T14:32:10.418Z,3.40
2022-08-03T14:34:12.791Z,0.80
2022-08-03T14:36:53.819Z,2.50
2022-08-03T14:41:24.926Z,1.80
2022-08-03T14:43:27.069Z,2.30
2022-08-03T14:46:07.127Z,2.90
2022-08-03T14:50:33.887Z,2.40
2022-08-03T14:51:54.256Z,1.60
2022-08-03T14:54:42.325Z,1.50
2022-08-03T14:57:13.993Z,2.40
2022-08-03T14:59:55.966Z,2.10
2022-08-03T15:02:37.092Z,2.50
2022-08-03T15:05:10.983Z,1.90
2022-08-03T15:07:42.580Z,2.40
2022-08-03T15:10:20.145Z,2.70
2022-08-03T15:12:58.914Z,1.80
2022-08-03T15:15:30.637Z,1.40
2022-08-03T15:18:02.146Z,1.90
2022-08-03T15:20:43.918Z,3.20
2022-08-03T15:23:20.201Z,2.80
2022-08-03T15:26:29.396Z,4.70
2022-08-03T15:28:45.784Z,1.30
2022-08-03T15:31:26.190Z,2.50
2022-08-03T15:33:57.530Z,1.80
2022-08-03T15:36:30.119Z,2.00
2022-08-03T15:39:04.594Z,2.10
2022-08-03T15:41:36.040Z,1.80
2022-08-03T15:44:09.424Z,2.40
2022-08-03T15:46:41.284Z,4.80
2022-08-03T15:49:12.716Z,1.70
2022-08-03T15:51:44.042Z,1.50
2022-08-03T15:54:15.638Z,2.30
2022-08-03T15:59:53.846Z,2.50
2022-08-03T16:02:35.272Z,2.20
2022-08-03T16:05:07.418Z,3.60
2022-08-03T16:08:03.650Z,1.50
2022-08-03T16:10:39.900Z,9.40
2022-08-03T16:13:11.899Z,1.50
2022-08-03T16:15:45.791Z,1.50
2022-08-03T16:18:19.873Z,2.90
2022-08-03T16:21:05.117Z,3.50
2022-08-03T16:23:39.928Z,3.50
2022-08-03T16:26:37.918Z,3.80
2022-08-03T16:29:23.027Z,2.70
2022-08-03T16:31:57.816Z,1.40
2022-08-03T16:34:38.280Z,4.90
2022-08-03T16:37:36.628Z,1.70
2022-08-03T16:40:22.038Z,1.50
2022-08-03T16:42:53.456Z,3.10
2022-08-03T16:45:25.181Z,2.10
2022-08-03T16:48:01.855Z,1.80
2022-08-03T16:50:38.357Z,3.00
2022-08-03T16:53:15.553Z,2.00
2022-08-03T16:55:53.677Z,3.30
2022-08-03T16:58:41.511Z,2.20
2022-08-03T17:01:24.307Z,3.50
2022-08-03T17:04:03.276Z,2.90
2022-08-03T17:06:44.626Z,2.00
2022-08-03T17:09:19.165Z,2.10
2022-08-03T17:11:52.782Z,1.90
2022-08-03T17:14:29.433Z,2.80
2022-08-03T17:17:05.712Z,2.10
2022-08-03T17:19:47.121Z,3.30
2022-08-03T17:22:25.083Z,2.80
2022-08-03T17:24:58.690Z,2.40
2022-08-03T17:28:48.701Z,3.00
2022-08-03T17:30:44.560Z,2.70
2022-08-03T17:33:20.481Z,2.90
2022-08-03T17:35:56.556Z,2.60
2022-08-03T17:38:36.284Z,1.50
2022-08-03T17:41:10.818Z,3.10
2022-08-03T17:44:15.808Z,4.00
2022-08-03T17:46:35.772Z,4.30
2022-08-03T17:49:24.938Z,4.20
2022-08-03T17:52:02.963Z,3.40
2022-08-03T17:55:55.631Z,3.10
2022-08-03T17:58:02.985Z,3.60
2022-08-03T18:00:59.694Z,5.40
2022-08-03T18:03:57.692Z,4.40
2022-08-03T18:06:37.386Z,3.20
2022-08-03T18:10:03.252Z,4.20
2022-08-03T18:12:37.359Z,5.10
2022-08-03T18:18:10.718Z,5.00
2022-08-03T18:20:45.665Z,3.70
2022-08-03T18:23:24.970Z,3.50
2022-08-03T18:26:10.706Z,6.80
2022-08-03T18:28:44.826Z,3.60
2022-08-03T18:32:00.527Z,5.60
2022-08-03T18:34:16.413Z,5.00
2022-08-03T18:36:51.938Z,5.30
2022-08-03T18:39:26.712Z,6.10
2022-08-03T18:41:59.529Z,4.40
2022-08-03T18:44:52.553Z,4.50
2022-08-03T18:47:52.113Z,5.30
2022-08-03T18:50:30.559Z,6.10
2022-08-03T18:53:16.205Z,4.80
2022-08-03T18:58:55.484Z,4.60
2022-08-03T19:01:58.961Z,3.40
2022-08-03T19:04:35.309Z,5.50
2022-08-03T19:07:11.181Z,5.50
2022-08-03T19:09:51.933Z,5.00
2022-08-03T19:12:35.493Z,2.70
2022-08-03T19:15:12.693Z,2.10
2022-08-03T19:17:53.352Z,2.80
2022-08-03T19:20:33.890Z,1.80
2022-08-03T19:25:57.896Z,1.90
2022-08-03T19:28:34.222Z,1.20
2022-08-03T19:31:10.268Z,3.00
2022-08-03T19:33:57.396Z,4.10
2022-08-03T19:36:39.552Z,5.60
2022-08-03T19:39:15.730Z,4.30
2022-08-03T19:41:53.413Z,2.00
2022-08-03T19:44:35.559Z,1.80
2022-08-03T19:47:24.063Z,2.40
2022-08-03T19:50:05.770Z,2.60
2022-08-03T19:52:44.057Z,3.90
2022-08-03T19:55:17.525Z,2.20
2022-08-03T19:57:55.077Z,2.00
2022-08-03T20:00:34.066Z,2.80
2022-08-03T20:03:37.857Z,2.70
2022-08-03T20:06:33.215Z,2.10
2022-08-03T20:09:16.736Z,2.50
2022-08-03T20:11:52.728Z,4.10
2022-08-03T20:14:29.993Z,3.40
2022-08-03T20:17:05.337Z,3.20
2022-08-03T20:19:44.255Z,3.80
2022-08-03T20:22:23.168Z,4.70
2022-08-03T20:25:16.260Z,2.40
2022-08-03T20:28:13.980Z,2.70
2022-08-03T20:30:51.097Z,3.10
2022-08-03T20:33:46.395Z,3.60
2022-08-03T20:36:23.840Z,1.90
2022-08-03T20:39:02.288Z,3.30
2022-08-03T20:41:43.905Z,2.10
2022-08-03T20:44:15.884Z,4.20
2022-08-03T20:47:00.703Z,4.20
2022-08-03T20:49:46.318Z,2.90
2022-08-03T20:52:19.311Z,4.00
2022-08-03T20:54:52.110Z,2.40
2022-08-03T20:57:24.232Z,2.90
2022-08-03T20:59:57.472Z,3.20
2022-08-03T21:02:30.862Z,5.20
2022-08-03T21:05:08.547Z,3.40
2022-08-03T21:08:04.964Z,2.70
2022-08-03T21:10:40.706Z,5.60
2022-08-03T21:12:57.372Z,4.00
2022-08-03T21:13:00.962Z,5.10
2022-08-03T21:13:24.313Z,4.60
2022-08-03T21:16:06.140Z,3.90
2022-08-03T21:18:50.574Z,4.60
2022-08-03T21:21:24.541Z,4.00
2022-08-03T21:23:59.698Z,3.20
2022-08-03T21:26:33.834Z,2.80
2022-08-03T21:29:05.349Z,4.00
2022-08-03T21:31:42.447Z,8.20
2022-08-03T21:34:16.663Z,5.20
2022-08-03T21:36:48.076Z,2.70
2022-08-03T21:39:19.562Z,2.00
2022-08-03T21:41:50.972Z,2.20
2022-08-03T21:44:29.073Z,2.00
2022-08-03T21:47:03.452Z,2.60
2022-08-03T21:50:04.559Z,3.30
2022-08-03T21:52:30.013Z,4.50
2022-08-03T21:55:06.807Z,3.50
2022-08-03T21:57:39.926Z,2.90
2022-08-03T22:00:15.832Z,2.70
2022-08-03T22:02:54.441Z,2.60
2022-08-03T22:05:42.494Z,3.60
2022-08-03T22:08:16.193Z,2.20
2022-08-03T22:11:12.271Z,2.90
2022-08-03T22:13:44.703Z,2.90
2022-08-03T22:16:25.518Z,4.30
2022-08-03T22:18:57.095Z,3.00
2022-08-03T22:21:36.062Z,5.70
2022-08-03T22:24:32.188Z,3.60
2022-08-03T22:27:23.496Z,2.90
2022-08-03T22:29:56.220Z,2.00
2022-08-03T22:32:28.972Z,2.50
2022-08-03T22:37:57.199Z,4.40
2022-08-03T22:40:40.389Z,8.00
2022-08-03T22:43:15.179Z,7.40
2022-08-03T22:46:09.291Z,6.40
2022-08-03T22:48:41.916Z,4.50
2022-08-03T22:51:28.325Z,8.40
2022-08-03T22:54:05.528Z,3.70
2022-08-03T22:56:41.500Z,3.90
2022-08-03T22:59:39.939Z,5.90
2022-08-03T23:02:20.141Z,4.40
2022-08-03T23:04:56.636Z,4.20
2022-08-03T23:07:32.855Z,6.10
2022-08-03T23:10:09.052Z,4.20
2022-08-03T23:12:45.540Z,6.00
2022-08-03T23:15:18.669Z,6.70
2022-08-03T23:18:04.549Z,4.20
2022-08-03T23:20:41.694Z,6.10
2022-08-03T23:23:20.643Z,7.70
2022-08-03T23:26:03.530Z,5.30
2022-08-03T23:28:51.809Z,4.80
2022-08-03T23:31:31.547Z,5.20
2022-08-03T23:34:23.383Z,3.00
2022-08-03T23:37:04.712Z,6.90
2022-08-03T23:39:38.174Z,6.20
2022-08-03T23:42:33.257Z,4.50
2022-08-03T23:45:29.108Z,7.30
2022-08-03T23:48:19.152Z,9.20
2022-08-03T23:50:58.356Z,6.20
2022-08-03T23:53:41.598Z,6.50
2022-08-03T23:56:20.150Z,3.50
2022-08-03T23:59:07.123Z,5.60
